Time;durP1;ratioP1;P1;durP2;ratioP2;P2;SDS_P1;SDS_P2;PMS_P1;PMS_P2;Temp;Humidity;BMP_temperature;BMP_pressure;BME280_temperature;BME280_humidity;BME280_pressure;Samples;Min_cycle;Max_cycle;Signal;HPM_P1;HPM_P2
2022/11/17 00:01:34;;;;;;;;;;;333.60;2329.60;;;;;;5044386;28;19936;-78
2022/11/17 00:03:59;;;;;;;;;;;333.60;2329.60;;;;;;5039636;28;19962;-78
2022/11/17 00:06:25;;;;;;;;;;;333.50;2329.60;;;;;;5046146;28;20023;-78
2022/11/17 00:08:51;;;;;;;;;;;333.60;2329.60;;;;;;5066189;28;19930;-79
2022/11/17 00:11:17;;;;;;;;;;;333.60;2329.60;;;;;;5034532;28;19928;-79
2022/11/17 00:16:34;;;;;;;;;;;333.60;2329.60;;;;;;5016985;28;19912;-78
2022/11/17 00:21:44;;;;;;;;;;;333.60;2329.60;;;;;;5052759;28;19951;-78
2022/11/17 00:24:09;;;;;;;;;;;333.60;2329.60;;;;;;5053168;28;20277;-78
2022/11/17 00:27:00;;;;;;;;;;;333.50;2329.60;;;;;;5053568;28;19910;-79
2022/11/17 00:29:21;;;;;;;;;;;333.60;2329.60;;;;;;5069274;28;20385;-78
2022/11/17 00:34:30;;;;;;;;;;;333.50;2329.60;;;;;;5058787;28;19934;-78
2022/11/17 00:36:56;;;;;;;;;;;333.50;2329.60;;;;;;5057390;28;20389;-79
2022/11/17 00:39:22;;;;;;;;;;;333.50;2329.60;;;;;;5056423;28;20277;-81
2022/11/17 00:41:48;;;;;;;;;;;333.50;2329.60;;;;;;5057066;28;20003;-79
2022/11/17 00:44:14;;;;;;;;;;;333.50;2329.60;;;;;;5048817;28;19973;-78
2022/11/17 00:46:39;;;;;;;;;;;333.50;2329.60;;;;;;5073342;28;19905;-77
2022/11/17 00:49:05;;;;;;;;;;;333.50;2329.60;;;;;;5074732;28;19909;-78
2022/11/17 00:51:31;;;;;;;;;;;333.50;2329.60;;;;;;5056718;28;20003;-78
2022/11/17 00:53:56;;;;;;;;;;;333.50;2329.60;;;;;;5074522;28;19913;-77
2022/11/17 00:56:22;;;;;;;;;;;333.50;2329.60;;;;;;5056102;28;19991;-76
2022/11/17 00:58:48;;;;;;;;;;;333.50;2329.60;;;;;;5056761;28;19911;-77
2022/11/17 01:01:14;;;;;;;;;;;333.50;2329.60;;;;;;5074172;28;20344;-78
2022/11/17 01:03:39;;;;;;;;;;;333.40;2329.60;;;;;;5056860;28;20281;-78
2022/11/17 01:06:23;;;;;;;;;;;333.40;2329.60;;;;;;5053893;28;19908;-77
2022/11/17 01:08:48;;;;;;;;;;;333.30;2329.60;;;;;;5056547;28;20285;-78
2022/11/17 01:11:15;;;;;;;;;;;333.30;2329.60;;;;;;5056530;28;19987;-77
2022/11/17 01:13:41;;;;;;;;;;;333.20;2329.60;;;;;;5074115;28;19912;-78
2022/11/17 01:16:14;;;;;;;;;;;333.20;2329.60;;;;;;5058886;28;19909;-76
2022/11/17 01:18:41;;;;;;;;;;;333.20;2329.60;;;;;;5074067;28;19952;-78
2022/11/17 01:21:08;;;;;;;;;;;333.20;2329.60;;;;;;5073968;28;19904;-77
2022/11/17 01:23:34;;;;;;;;;;;333.20;2329.60;;;;;;5056147;28;19904;-77
2022/11/17 01:26:01;;;;;;;;;;;333.50;2329.60;;;;;;5074543;28;19912;-77
2022/11/17 01:28:26;;;;;;;;;;;333.20;2329.60;;;;;;5055896;28;19991;-77
2022/11/17 01:30:57;;;;;;;;;;;333.10;2329.60;;;;;;5055792;28;19915;-78
2022/11/17 01:33:23;;;;;;;;;;;333.10;2329.60;;;;;;5055354;28;19930;-75
2022/11/17 01:35:48;;;;;;;;;;;333.10;2329.60;;;;;;5055753;28;19904;-76
2022/11/17 01:38:14;;;;;;;;;;;333.10;2329.60;;;;;;5056420;28;20004;-79
2022/11/17 01:40:40;;;;;;;;;;;333.10;2329.60;;;;;;5073501;28;20354;-79
2022/11/17 01:43:09;;;;;;;;;;;333.00;2124.80;;;;;;5072820;28;20255;-79
2022/11/17 01:45:35;;;;;;;;;;;333.00;2329.60;;;;;;5054451;28;19996;-79
2022/11/17 01:48:01;;;;;;;;;;;333.00;2329.60;;;;;;5055406;28;19911;-79
2022/11/17 01:50:30;;;;;;;;;;;333.00;2329.60;;;;;;5068499;28;20361;-79
2022/11/17 01:52:58;;;;;;;;;;;333.00;2329.60;;;;;;5073823;28;19904;-79
2022/11/17 01:55:25;;;;;;;;;;;332.90;2329.60;;;;;;5055963;28;19913;-79
2022/11/17 01:58:01;;;;;;;;;;;332.90;2329.60;;;;;;5055983;28;20380;-79
2022/11/17 02:00:27;;;;;;;;;;;332.90;2329.60;;;;;;5066005;28;19920;-79
2022/11/17 02:02:53;;;;;;;;;;;332.80;2329.60;;;;;;5073885;28;19991;-79
2022/11/17 02:05:19;;;;;;;;;;;332.80;2329.60;;;;;;5055301;28;19943;-79
2022/11/17 02:07:45;;;;;;;;;;;332.80;2329.60;;;;;;5055875;28;19909;-78
2022/11/17 02:10:10;;;;;;;;;;;308.10;2304.00;;;;;;5073566;28;19912;-79
2022/11/17 02:12:37;;;;;;;;;;;308.10;2304.00;;;;;;5055028;28;19951;-78
2022/11/17 02:15:03;;;;;;;;;;;308.10;2304.00;;;;;;5055222;28;21549;-79
2022/11/17 02:17:33;;;;;;;;;;;308.00;2304.00;;;;;;5055688;28;19995;-79
2022/11/17 02:20:08;;;;;;;;;;;308.00;2304.00;;;;;;5055738;28;19904;-78
2022/11/17 02:22:46;;;;;;;;;;;308.00;2304.00;;;;;;5055581;28;19908;-78
2022/11/17 02:25:11;;;;;;;;;;;307.90;2304.00;;;;;;5073432;28;19904;-78
2022/11/17 02:27:40;;;;;;;;;;;307.90;2304.00;;;;;;5073422;28;19905;-79
2022/11/17 02:30:09;;;;;;;;;;;307.80;2304.00;;;;;;5055311;28;20281;-79
2022/11/17 02:32:40;;;;;;;;;;;307.80;2304.00;;;;;;5055038;28;20342;-79
2022/11/17 02:35:32;;;;;;;;;;;307.80;2304.00;;;;;;5055011;28;19912;-78
2022/11/17 02:38:15;;;;;;;;;;;307.80;2304.00;;;;;;5069162;28;19912;-79
2022/11/17 02:41:08;;;;;;;;;;;307.80;2304.00;;;;;;5067411;28;19912;-80
2022/11/17 02:46:23;;;;;;;;;;;307.80;2304.00;;;;;;5071000;28;19954;-79
2022/11/17 02:48:53;;;;;;;;;;;307.70;2304.00;;;;;;5055177;28;19904;-78
2022/11/17 02:51:20;;;;;;;;;;;307.70;2304.00;;;;;;5055009;28;20412;-79
2022/11/17 02:53:46;;;;;;;;;;;307.60;2304.00;;;;;;5054562;28;19913;-79
2022/11/17 02:56:12;;;;;;;;;;;307.50;2304.00;;;;;;5054738;28;19909;-79
2022/11/17 02:58:37;;;;;;;;;;;307.60;2304.00;;;;;;5054845;28;20385;-79
2022/11/17 03:01:17;;;;;;;;;;;307.60;2304.00;;;;;;5054475;28;19928;-79
2022/11/17 03:03:49;;;;;;;;;;;307.50;2304.00;;;;;;5072262;28;19947;-77
2022/11/17 03:06:15;;;;;;;;;;;307.50;2304.00;;;;;;5050671;28;19908;-78
2022/11/17 03:09:03;;;;;;;;;;;307.40;2304.00;;;;;;5054283;28;19904;-78
2022/11/17 03:11:37;;;;;;;;;;;307.30;2304.00;;;;;;5053941;28;19912;-77
2022/11/17 03:14:08;;;;;;;;;;;307.30;2304.00;;;;;;5054345;28;19913;-79
2022/11/17 03:16:36;;;;;;;;;;;307.30;2304.00;;;;;;5053961;28;19908;-78
2022/11/17 03:19:04;;;;;;;;;;;307.40;2304.00;;;;;;5072192;28;19949;-79
2022/11/17 03:21:41;;;;;;;;;;;307.30;2304.00;;;;;;5067049;28;20358;-78
2022/11/17 03:24:17;;;;;;;;;;;307.40;2304.00;;;;;;5054102;28;20002;-77
2022/11/17 03:26:51;;;;;;;;;;;307.40;2304.00;;;;;;5054407;28;19994;-79
2022/11/17 03:29:18;;;;;;;;;;;307.40;2304.00;;;;;;5061425;28;20002;-78
2022/11/17 03:31:44;;;;;;;;;;;307.40;2304.00;;;;;;5054105;28;19908;-78
2022/11/17 03:34:12;;;;;;;;;;;307.50;2304.00;;;;;;5071830;28;19919;-78
2022/11/17 03:36:40;;;;;;;;;;;307.50;2304.00;;;;;;5053862;28;19908;-77
2022/11/17 03:39:16;;;;;;;;;;;307.50;2048.00;;;;;;5072012;28;19912;-78
2022/11/17 03:41:43;;;;;;;;;;;307.40;2304.00;;;;;;5054018;28;19904;-78
2022/11/17 03:44:10;;;;;;;;;;;307.40;2227.20;;;;;;5054046;28;19926;-77
2022/11/17 03:46:37;;;;;;;;;;;307.30;2304.00;;;;;;5053731;28;19912;-77
2022/11/17 03:49:23;;;;;;;;;;;307.30;2201.60;;;;;;5054042;28;19966;-78
2022/11/17 03:51:49;;;;;;;;;;;307.30;2176.00;;;;;;5039846;28;19905;-78
2022/11/17 03:54:15;;;;;;;;;;;307.30;2304.00;;;;;;5053158;28;19920;-77
2022/11/17 03:57:03;;;;;;;;;;;307.30;2124.80;;;;;;5054135;28;19904;-78
2022/11/17 03:59:35;;;;;;;;;;;307.30;2048.00;;;;;;4968771;28;19982;-77
2022/11/17 04:02:01;;;;;;;;;;;307.20;2124.80;;;;;;4990356;28;20426;-78
2022/11/17 04:05:04;;;;;;;;;;;307.30;2201.60;;;;;;4964229;28;19905;-80
2022/11/17 04:07:12;;;;;;;;;;;307.30;2150.40;;;;;;4994274;28;19906;-80
2022/11/17 04:09:37;;;;;;;;;;;307.20;2304.00;;;;;;4994189;28;20045;-80
2022/11/17 04:17:31;;;;;;;;;;;307.20;2304.00;;;;;;4992533;28;19927;-80
2022/11/17 04:19:57;;;;;;;;;;;307.20;2304.00;;;;;;4978327;28;20343;-80
2022/11/17 04:22:22;;;;;;;;;;;307.20;2304.00;;;;;;4978242;28;19929;-80
2022/11/17 04:24:48;;;;;;;;;;;307.20;2304.00;;;;;;4978289;28;19906;-80
2022/11/17 04:29:57;;;;;;;;;;;282.50;2278.40;;;;;;4994995;28;19917;-79
2022/11/17 04:32:23;;;;;;;;;;;282.50;2278.40;;;;;;4977388;28;19910;-80
2022/11/17 04:34:48;;;;;;;;;;;282.50;2278.40;;;;;;4977881;28;19914;-80
2022/11/17 04:37:17;;;;;;;;;;;282.50;2278.40;;;;;;5042839;28;19949;-80
2022/11/17 04:39:43;;;;;;;;;;;282.50;2278.40;;;;;;5075650;28;19905;-80
2022/11/17 04:42:09;;;;;;;;;;;282.40;2278.40;;;;;;5057897;28;19904;-79
2022/11/17 04:44:34;;;;;;;;;;;282.40;2278.40;;;;;;5057621;28;19916;-79
2022/11/17 04:47:03;;;;;;;;;;;282.40;2278.40;;;;;;5073388;28;19998;-79
2022/11/17 04:49:30;;;;;;;;;;;282.40;2278.40;;;;;;5075566;28;19911;-80
2022/11/17 04:51:55;;;;;;;;;;;282.30;2278.40;;;;;;5057869;28;19908;-80
2022/11/17 04:54:25;;;;;;;;;;;282.30;2278.40;;;;;;5057446;28;19912;-79
2022/11/17 04:56:51;;;;;;;;;;;282.30;2278.40;;;;;;5075269;28;19911;-80
2022/11/17 04:59:17;;;;;;;;;;;282.20;2278.40;;;;;;5057572;28;19910;-79
2022/11/17 05:01:43;;;;;;;;;;;282.20;2278.40;;;;;;5057362;28;20007;-80
2022/11/17 05:04:09;;;;;;;;;;;282.20;2278.40;;;;;;5054632;28;19912;-80
2022/11/17 05:06:44;;;;;;;;;;;282.20;2278.40;;;;;;5057400;28;19905;-79
2022/11/17 05:09:14;;;;;;;;;;;282.20;2278.40;;;;;;5057302;28;19910;-79
2022/11/17 05:14:25;;;;;;;;;;;282.00;2278.40;;;;;;5073431;28;20312;-79
2022/11/17 05:17:09;;;;;;;;;;;282.10;2278.40;;;;;;5056829;28;20251;-79
2022/11/17 05:19:36;;;;;;;;;;;282.10;2278.40;;;;;;5074689;28;20366;-77
2022/11/17 05:22:02;;;;;;;;;;;282.10;2278.40;;;;;;5056580;28;19911;-78
2022/11/17 05:24:28;;;;;;;;;;;282.10;2278.40;;;;;;5053576;28;19951;-79
2022/11/17 05:26:54;;;;;;;;;;;282.10;2278.40;;;;;;5040183;28;19908;-78
2022/11/17 05:29:20;;;;;;;;;;;282.10;2278.40;;;;;;5056273;28;19996;-78
2022/11/17 05:31:46;;;;;;;;;;;282.10;2278.40;;;;;;5056317;28;20370;-78
2022/11/17 05:34:13;;;;;;;;;;;282.20;2278.40;;;;;;5055855;28;19916;-78
2022/11/17 05:36:39;;;;;;;;;;;282.20;2278.40;;;;;;5074198;28;19905;-79
2022/11/17 05:39:04;;;;;;;;;;;282.10;2278.40;;;;;;5056280;28;19905;-79
2022/11/17 05:41:30;;;;;;;;;;;282.10;2278.40;;;;;;5056266;28;20414;-79
2022/11/17 05:43:56;;;;;;;;;;;282.00;2278.40;;;;;;5042945;28;19905;-79
2022/11/17 05:46:22;;;;;;;;;;;282.00;2278.40;;;;;;5026561;28;20027;-79
2022/11/17 05:48:51;;;;;;;;;;;282.00;2278.40;;;;;;5043225;28;19911;-78
2022/11/17 05:51:18;;;;;;;;;;;282.00;2278.40;;;;;;5072190;28;19904;-79
2022/11/17 05:53:44;;;;;;;;;;;282.00;2278.40;;;;;;5055831;28;20340;-79
2022/11/17 05:56:19;;;;;;;;;;;282.00;2278.40;;;;;;5055681;28;19909;-79
2022/11/17 05:58:46;;;;;;;;;;;282.00;2278.40;;;;;;5055876;28;20270;-78
2022/11/17 06:01:13;;;;;;;;;;;281.90;2278.40;;;;;;5052391;28;19935;-79
2022/11/17 06:03:41;;;;;;;;;;;281.80;2278.40;;;;;;5053766;28;19905;-79
2022/11/17 06:06:07;;;;;;;;;;;281.90;2278.40;;;;;;5052134;28;19911;-79
2022/11/17 06:08:33;;;;;;;;;;;281.90;2278.40;;;;;;5052508;28;20358;-79
2022/11/17 06:10:59;;;;;;;;;;;281.90;2278.40;;;;;;5053401;28;19905;-79
2022/11/17 06:13:27;;;;;;;;;;;281.80;2278.40;;;;;;5052290;28;19908;-76
2022/11/17 06:15:57;;;;;;;;;;;281.80;2278.40;;;;;;5048031;28;19908;-79
2022/11/17 06:18:26;;;;;;;;;;;281.70;2278.40;;;;;;5053345;28;19911;-78
2022/11/17 06:20:52;;;;;;;;;;;281.70;2278.40;;;;;;5053253;28;19905;-78
2022/11/17 06:23:19;;;;;;;;;;;281.80;2278.40;;;;;;5053431;28;19974;-79
2022/11/17 06:25:45;;;;;;;;;;;281.70;2278.40;;;;;;5051632;28;20346;-78
2022/11/17 06:28:12;;;;;;;;;;;281.70;2278.40;;;;;;5051573;28;19947;-77
2022/11/17 06:30:38;;;;;;;;;;;281.70;2278.40;;;;;;5053431;28;19916;-78
2022/11/17 06:33:06;;;;;;;;;;;281.80;2278.40;;;;;;5051704;28;19909;-81
2022/11/17 06:35:33;;;;;;;;;;;281.80;2278.40;;;;;;5053640;28;19913;-82
2022/11/17 06:37:59;;;;;;;;;;;281.80;2278.40;;;;;;5025464;28;19906;-78
2022/11/17 06:40:25;;;;;;;;;;;281.80;2278.40;;;;;;5018265;28;19905;-82
2022/11/17 06:43:02;;;;;;;;;;;281.80;2278.40;;;;;;5033897;28;19905;-79
2022/11/17 06:45:31;;;;;;;;;;;281.80;2278.40;;;;;;5027098;28;19951;-76
2022/11/17 06:47:57;;;;;;;;;;;281.90;2278.40;;;;;;5028418;28;19908;-76
2022/11/17 06:50:22;;;;;;;;;;;281.90;2278.40;;;;;;5052508;28;19905;-77
2022/11/17 06:52:48;;;;;;;;;;;281.90;2278.40;;;;;;5052035;28;20358;-79
2022/11/17 06:55:13;;;;;;;;;;;282.00;2278.40;;;;;;5051624;28;20003;-83
2022/11/17 06:57:39;;;;;;;;;;;282.00;2278.40;;;;;;5052563;28;19912;-81
2022/11/17 07:00:05;;;;;;;;;;;282.00;2278.40;;;;;;5032324;28;19952;-79
2022/11/17 07:02:31;;;;;;;;;;;282.00;2278.40;;;;;;5019860;28;19955;-79
2022/11/17 07:04:56;;;;;;;;;;;282.00;2278.40;;;;;;5015454;28;19905;-80
2022/11/17 07:07:22;;;;;;;;;;;282.10;2278.40;;;;;;5022507;28;19912;-80
2022/11/17 07:09:47;;;;;;;;;;;282.10;2278.40;;;;;;5053197;28;19909;-81
2022/11/17 07:12:14;;;;;;;;;;;282.10;2278.40;;;;;;5035075;28;20370;-79
2022/11/17 07:14:40;;;;;;;;;;;282.20;2278.40;;;;;;5033744;28;19958;-80
2022/11/17 07:17:06;;;;;;;;;;;282.20;2278.40;;;;;;5026664;28;19904;-79
2022/11/17 07:19:32;;;;;;;;;;;282.20;2278.40;;;;;;5013219;28;19911;-83
2022/11/17 07:21:57;;;;;;;;;;;282.20;2278.40;;;;;;5053454;28;19912;-79
2022/11/17 07:24:23;;;;;;;;;;;282.20;2278.40;;;;;;5040365;28;20348;-84
2022/11/17 07:26:48;;;;;;;;;;;282.20;2278.40;;;;;;5029959;28;19908;-80
2022/11/17 07:29:14;;;;;;;;;;;282.20;2278.40;;;;;;5040975;28;19909;-80
2022/11/17 07:31:39;;;;;;;;;;;282.20;2278.40;;;;;;5023504;28;19909;-79
2022/11/17 07:34:05;;;;;;;;;;;282.20;2278.40;;;;;;5019824;28;19924;-78
2022/11/17 07:36:30;;;;;;;;;;;282.20;2278.40;;;;;;5009679;28;19917;-80
2022/11/17 07:38:56;;;;;;;;;;;282.20;2278.40;;;;;;5034648;28;19905;-80
2022/11/17 07:41:22;;;;;;;;;;;282.30;2278.40;;;;;;5016020;28;19909;-81
2022/11/17 07:43:47;;;;;;;;;;;282.40;2278.40;;;;;;5015483;28;19968;-80
2022/11/17 07:46:13;;;;;;;;;;;282.40;2278.40;;;;;;5022197;28;19910;-82
2022/11/17 07:48:40;;;;;;;;;;;282.30;2278.40;;;;;;5016070;28;19912;-80
2022/11/17 07:51:05;;;;;;;;;;;282.20;2278.40;;;;;;5035885;28;19909;-85
2022/11/17 07:53:33;;;;;;;;;;;282.20;2278.40;;;;;;5037653;28;19966;-82
2022/11/17 07:56:06;;;;;;;;;;;282.30;2278.40;;;;;;5016373;28;19909;-83
2022/11/17 07:58:32;;;;;;;;;;;282.40;2278.40;;;;;;5030268;28;20353;-79
2022/11/17 08:00:57;;;;;;;;;;;282.50;2278.40;;;;;;5039877;28;20008;-80
2022/11/17 08:03:23;;;;;;;;;;;282.50;2278.40;;;;;;5047483;28;19910;-80
2022/11/17 08:05:49;;;;;;;;;;;282.50;2278.40;;;;;;5042277;28;19912;-82
2022/11/17 08:08:14;;;;;;;;;;;282.50;2278.40;;;;;;5054409;28;19951;-79
2022/11/17 08:10:41;;;;;;;;;;;282.50;2278.40;;;;;;5054540;28;19912;-80
2022/11/17 08:13:07;;;;;;;;;;;307.20;2304.00;;;;;;5054883;28;20346;-81
2022/11/17 08:15:33;;;;;;;;;;;307.40;2304.00;;;;;;5036754;28;19983;-80
2022/11/17 08:17:59;;;;;;;;;;;307.20;2304.00;;;;;;5035177;28;19909;-82
2022/11/17 08:20:27;;;;;;;;;;;307.30;2304.00;;;;;;5035031;28;19909;-81
2022/11/17 08:22:52;;;;;;;;;;;307.30;2304.00;;;;;;5053308;28;19982;-83
2022/11/17 08:25:19;;;;;;;;;;;307.20;2304.00;;;;;;5033922;28;19905;-83
2022/11/17 08:27:44;;;;;;;;;;;307.30;2304.00;;;;;;5059624;28;19961;-82
2022/11/17 08:30:10;;;;;;;;;;;307.20;2304.00;;;;;;5072663;28;20308;-84
2022/11/17 08:32:36;;;;;;;;;;;307.20;2304.00;;;;;;5022049;28;19920;-78
2022/11/17 08:35:04;;;;;;;;;;;307.20;2304.00;;;;;;5044953;28;19912;-80
2022/11/17 08:37:30;;;;;;;;;;;307.20;2304.00;;;;;;5040335;28;19942;-81
2022/11/17 08:39:55;;;;;;;;;;;307.20;2304.00;;;;;;5045563;28;20252;-79
2022/11/17 08:42:21;;;;;;;;;;;307.20;2304.00;;;;;;5048858;28;19947;-83
2022/11/17 08:44:46;;;;;;;;;;;307.20;2304.00;;;;;;5041079;28;19905;-79
2022/11/17 08:47:12;;;;;;;;;;;307.20;2304.00;;;;;;5033714;28;19905;-77
2022/11/17 08:49:38;;;;;;;;;;;307.20;2304.00;;;;;;5034763;28;19905;-85
2022/11/17 08:52:03;;;;;;;;;;;307.20;2304.00;;;;;;5049739;28;19905;-79
2022/11/17 08:54:29;;;;;;;;;;;307.20;2304.00;;;;;;5055852;28;20007;-88
2022/11/17 08:56:58;;;;;;;;;;;307.30;2304.00;;;;;;5049605;28;19965;-80
2022/11/17 08:59:24;;;;;;;;;;;307.30;2304.00;;;;;;5026398;28;19908;-79
2022/11/17 09:01:50;;;;;;;;;;;307.20;2304.00;;;;;;5038045;28;19968;-84
2022/11/17 09:04:15;;;;;;;;;;;307.20;2304.00;;;;;;5055524;28;20371;-79
2022/11/17 09:06:41;;;;;;;;;;;307.20;2304.00;;;;;;5055869;28;19904;-80
2022/11/17 09:09:07;;;;;;;;;;;307.30;2304.00;;;;;;5041800;28;19908;-82
2022/11/17 09:11:32;;;;;;;;;;;307.30;2304.00;;;;;;5037907;28;19909;-81
2022/11/17 09:13:58;;;;;;;;;;;307.30;2304.00;;;;;;5039460;28;19932;-80
2022/11/17 09:16:24;;;;;;;;;;;307.30;2304.00;;;;;;5042567;28;19913;-80
2022/11/17 09:18:57;;;;;;;;;;;307.40;2304.00;;;;;;5031285;28;20424;-79
2022/11/17 09:21:23;;;;;;;;;;;307.40;2304.00;;;;;;5051291;28;19912;-80
2022/11/17 09:23:49;;;;;;;;;;;307.30;2304.00;;;;;;5054946;28;19911;-80
2022/11/17 09:26:14;;;;;;;;;;;307.30;2304.00;;;;;;5060095;28;19987;-81
2022/11/17 09:28:41;;;;;;;;;;;307.20;2304.00;;;;;;5057789;28;19995;-82
2022/11/17 09:31:07;;;;;;;;;;;307.20;2304.00;;;;;;5051628;28;19964;-83
2022/11/17 09:33:33;;;;;;;;;;;307.30;2304.00;;;;;;5027097;28;19915;-81
2022/11/17 09:35:58;;;;;;;;;;;307.30;2304.00;;;;;;5054688;28;20337;-86
2022/11/17 09:38:24;;;;;;;;;;;307.30;2304.00;;;;;;5031373;28;19999;-83
2022/11/17 09:40:50;;;;;;;;;;;307.30;2304.00;;;;;;5048527;28;19905;-81
2022/11/17 09:43:25;;;;;;;;;;;307.30;2304.00;;;;;;5042430;28;20281;-82
2022/11/17 09:45:52;;;;;;;;;;;307.30;2304.00;;;;;;5041045;28;19905;-79
2022/11/17 09:48:21;;;;;;;;;;;307.30;2304.00;;;;;;5055435;28;19999;-82
2022/11/17 09:50:48;;;;;;;;;;;307.40;2304.00;;;;;;5057177;28;20240;-80
2022/11/17 09:53:16;;;;;;;;;;;307.40;2304.00;;;;;;5072623;28;20408;-86
2022/11/17 09:55:44;;;;;;;;;;;307.50;2304.00;;;;;;5074993;28;19957;-85
2022/11/17 09:58:28;;;;;;;;;;;307.40;2304.00;;;;;;5057081;28;20360;-84
2022/11/17 10:00:54;;;;;;;;;;;307.30;2304.00;;;;;;5044576;28;19921;-82
2022/11/17 10:03:21;;;;;;;;;;;307.30;2304.00;;;;;;5073738;28;20247;-82
2022/11/17 10:05:47;;;;;;;;;;;307.30;2304.00;;;;;;5056858;28;19927;-85
2022/11/17 10:08:33;;;;;;;;;;;307.30;2304.00;;;;;;5055829;28;19908;-86
2022/11/17 10:10:59;;;;;;;;;;;307.30;2304.00;;;;;;5042784;28;19904;-84
2022/11/17 10:13:24;;;;;;;;;;;307.20;2304.00;;;;;;5056310;28;19905;-80
2022/11/17 10:15:56;;;;;;;;;;;307.20;2304.00;;;;;;5071298;28;19912;-84
2022/11/17 10:18:21;;;;;;;;;;;307.30;2304.00;;;;;;5056124;28;20382;-82
2022/11/17 10:20:47;;;;;;;;;;;307.50;2304.00;;;;;;5060445;28;19966;-81
2022/11/17 10:23:15;;;;;;;;;;;307.50;2304.00;;;;;;5056846;28;19905;-81
2022/11/17 10:25:52;;;;;;;;;;;307.60;2304.00;;;;;;5056850;28;19904;-81
2022/11/17 10:28:26;;;;;;;;;;;307.60;2304.00;;;;;;5063901;28;19915;-83
2022/11/17 10:30:53;;;;;;;;;;;307.60;2304.00;;;;;;5050544;28;19913;-82
2022/11/17 10:33:30;;;;;;;;;;;307.50;2304.00;;;;;;5074308;28;19964;-80
2022/11/17 10:35:56;;;;;;;;;;;307.50;2304.00;;;;;;5056574;28;19942;-82
2022/11/17 10:38:23;;;;;;;;;;;307.50;2304.00;;;;;;5060500;28;19909;-81
2022/11/17 10:40:49;;;;;;;;;;;307.50;2304.00;;;;;;5056104;28;19966;-82
2022/11/17 10:43:18;;;;;;;;;;;307.50;2304.00;;;;;;5043008;28;19904;-83
2022/11/17 10:45:44;;;;;;;;;;;307.50;2304.00;;;;;;5029408;28;19917;-83
2022/11/17 10:48:16;;;;;;;;;;;307.50;2304.00;;;;;;5043706;28;19910;-83
2022/11/17 10:51:00;;;;;;;;;;;307.70;2304.00;;;;;;5041361;28;19905;-83
2022/11/17 10:53:27;;;;;;;;;;;307.70;2304.00;;;;;;5051469;28;19908;-84
2022/11/17 10:56:01;;;;;;;;;;;307.80;2304.00;;;;;;5049546;28;19915;-82
2022/11/17 10:58:28;;;;;;;;;;;307.80;2304.00;;;;;;5036819;28;19912;-84
2022/11/17 11:00:58;;;;;;;;;;;307.80;2304.00;;;;;;5043751;28;19928;-85
2022/11/17 11:03:33;;;;;;;;;;;307.80;2304.00;;;;;;5044055;28;19951;-85
2022/11/17 11:05:59;;;;;;;;;;;307.80;2304.00;;;;;;5042427;28;19908;-85
2022/11/17 11:08:47;;;;;;;;;;;307.80;2304.00;;;;;;5044145;28;19911;-83
2022/11/17 11:11:19;;;;;;;;;;;307.80;2304.00;;;;;;5043480;28;19904;-85
2022/11/17 11:13:48;;;;;;;;;;;307.90;2304.00;;;;;;5055965;28;19912;-83
2022/11/17 11:16:14;;;;;;;;;;;307.90;2304.00;;;;;;5042553;28;19913;-78
2022/11/17 11:18:39;;;;;;;;;;;307.90;2304.00;;;;;;5060734;28;19912;-82
2022/11/17 11:21:06;;;;;;;;;;;307.90;2304.00;;;;;;5035228;28;20433;-80
2022/11/17 11:24:11;;;;;;;;;;;332.80;2329.60;;;;;;5035497;28;19946;-79
2022/11/17 11:26:45;;;;;;;;;;;332.80;2329.60;;;;;;4992159;28;19956;-81
2022/11/17 11:29:11;;;;;;;;;;;332.90;2329.60;;;;;;4976111;28;19909;-82
2022/11/17 11:31:49;;;;;;;;;;;332.90;2329.60;;;;;;4976093;28;20777;-81
2022/11/17 11:34:24;;;;;;;;;;;332.90;2329.60;;;;;;4973879;28;20303;-81
2022/11/17 11:36:55;;;;;;;;;;;332.90;2329.60;;;;;;4991465;28;19992;-81
2022/11/17 11:39:20;;;;;;;;;;;332.90;2329.60;;;;;;4976104;28;19909;-82
2022/11/17 11:41:57;;;;;;;;;;;333.10;2329.60;;;;;;4992163;28;19906;-86
2022/11/17 11:44:25;;;;;;;;;;;333.30;2329.60;;;;;;4980675;28;19914;-88
2022/11/17 11:47:09;;;;;;;;;;;333.40;2329.60;;;;;;4975413;28;20394;-85
2022/11/17 11:49:38;;;;;;;;;;;333.50;2329.60;;;;;;4975326;28;19913;-82
2022/11/17 11:52:09;;;;;;;;;;;333.40;2329.60;;;;;;4991885;28;19905;-87
2022/11/17 11:54:35;;;;;;;;;;;333.60;2329.60;;;;;;4991430;28;19921;-83
2022/11/17 11:57:00;;;;;;;;;;;333.70;2329.60;;;;;;4999961;28;19908;-85
2022/11/17 11:59:38;;;;;;;;;;;333.60;2329.60;;;;;;5073020;28;19916;-86
2022/11/17 12:02:10;;;;;;;;;;;358.50;2329.60;;;;;;5054900;28;20393;-87
2022/11/17 12:04:35;;;;;;;;;;;358.50;2329.60;;;;;;5055637;28;19912;-81
2022/11/17 12:07:09;;;;;;;;;;;358.50;2329.60;;;;;;5072908;28;19909;-82
2022/11/17 12:09:55;;;;;;;;;;;358.40;2329.60;;;;;;5070268;28;19904;-84
2022/11/17 12:12:34;;;;;;;;;;;358.40;2329.60;;;;;;4991214;28;20282;-84
2022/11/17 12:15:29;;;;;;;;;;;333.50;2329.60;;;;;;4964942;28;19914;-87
2022/11/17 12:17:59;;;;;;;;;;;333.70;2329.60;;;;;;4975022;28;19905;-81
2022/11/17 12:20:37;;;;;;;;;;;358.40;2329.60;;;;;;4965934;28;19909;-82
2022/11/17 12:23:05;;;;;;;;;;;358.40;2329.60;;;;;;4991049;28;19913;-84
2022/11/17 12:25:33;;;;;;;;;;;358.40;2329.60;;;;;;4978697;28;19952;-89
2022/11/17 12:28:17;;;;;;;;;;;358.40;2329.60;;;;;;4977858;28;19913;-83
2022/11/17 12:30:43;;;;;;;;;;;333.70;2329.60;;;;;;4978558;28;19955;-83
2022/11/17 12:33:08;;;;;;;;;;;333.70;2329.60;;;;;;4987622;28;19918;-85
2022/11/17 12:35:38;;;;;;;;;;;333.70;2329.60;;;;;;4975977;28;20004;-82
2022/11/17 12:38:12;;;;;;;;;;;333.70;2329.60;;;;;;4976526;28;19980;-85
2022/11/17 12:40:38;;;;;;;;;;;333.70;2329.60;;;;;;4979413;28;19905;-84
2022/11/17 12:43:16;;;;;;;;;;;333.70;2329.60;;;;;;4986143;28;20353;-85
2022/11/17 12:46:04;;;;;;;;;;;333.70;2329.60;;;;;;4963384;28;20238;-82
2022/11/17 12:48:31;;;;;;;;;;;333.60;2329.60;;;;;;4980963;28;19906;-80
2022/11/17 12:51:00;;;;;;;;;;;333.50;2329.60;;;;;;5056431;28;19905;-82
2022/11/17 12:53:25;;;;;;;;;;;333.50;2329.60;;;;;;5071019;28;19908;-80
2022/11/17 12:55:59;;;;;;;;;;;333.50;2329.60;;;;;;5058467;28;19916;-83
2022/11/17 12:58:28;;;;;;;;;;;333.40;2329.60;;;;;;5076325;28;19911;-80
2022/11/17 13:01:12;;;;;;;;;;;333.50;2329.60;;;;;;5045894;28;19964;-82
2022/11/17 13:03:50;;;;;;;;;;;333.50;2329.60;;;;;;5048201;28;20003;-81
2022/11/17 13:06:16;;;;;;;;;;;333.50;2329.60;;;;;;5076212;28;19911;-82
2022/11/17 13:08:58;;;;;;;;;;;333.50;2329.60;;;;;;5028970;28;19905;-78
2022/11/17 13:11:23;;;;;;;;;;;333.50;2329.60;;;;;;5043857;28;19931;-77
2022/11/17 13:14:04;;;;;;;;;;;333.50;2329.60;;;;;;5069340;28;20383;-78
2022/11/17 13:16:30;;;;;;;;;;;333.50;2329.60;;;;;;5055829;28;19916;-78
2022/11/17 13:18:56;;;;;;;;;;;333.50;2329.60;;;;;;5068724;28;19904;-81
2022/11/17 13:21:24;;;;;;;;;;;333.60;2329.60;;;;;;5057220;28;19933;-82
2022/11/17 13:23:50;;;;;;;;;;;333.50;2329.60;;;;;;5058219;28;19991;-81
2022/11/17 13:26:20;;;;;;;;;;;333.50;2329.60;;;;;;5075610;28;19915;-82
2022/11/17 13:28:47;;;;;;;;;;;333.50;2329.60;;;;;;5075504;28;20065;-81
2022/11/17 13:31:18;;;;;;;;;;;333.50;2329.60;;;;;;5057453;28;19931;-81
2022/11/17 13:33:53;;;;;;;;;;;333.50;2329.60;;;;;;5046923;28;19987;-82
2022/11/17 13:36:19;;;;;;;;;;;333.50;2329.60;;;;;;5030583;28;19905;-81
2022/11/17 13:38:51;;;;;;;;;;;333.50;2329.60;;;;;;5050548;28;19911;-80
2022/11/17 13:41:18;;;;;;;;;;;333.40;2329.60;;;;;;5044853;28;19912;-82
2022/11/17 13:43:45;;;;;;;;;;;333.40;2329.60;;;;;;5057337;28;19943;-83
2022/11/17 13:46:11;;;;;;;;;;;333.40;2329.60;;;;;;5055400;28;20005;-82
2022/11/17 13:48:37;;;;;;;;;;;333.40;2329.60;;;;;;5037438;28;20378;-83
2022/11/17 13:51:18;;;;;;;;;;;333.30;2329.60;;;;;;5017597;28;19906;-82
2022/11/17 13:53:54;;;;;;;;;;;333.20;2329.60;;;;;;5017855;28;20331;-83
2022/11/17 13:56:25;;;;;;;;;;;333.20;2329.60;;;;;;5053210;28;19908;-82
2022/11/17 13:58:51;;;;;;;;;;;333.20;2329.60;;;;;;5057341;28;19995;-84
2022/11/17 14:01:22;;;;;;;;;;;333.20;2329.60;;;;;;5057340;28;19974;-82
2022/11/17 14:03:48;;;;;;;;;;;333.20;2329.60;;;;;;5057788;28;19904;-81
2022/11/17 14:06:14;;;;;;;;;;;333.20;2329.60;;;;;;5057255;28;19953;-82
2022/11/17 14:08:41;;;;;;;;;;;333.20;2329.60;;;;;;5043097;28;19952;-82
2022/11/17 14:11:20;;;;;;;;;;;333.10;2329.60;;;;;;5031075;28;19915;-82
2022/11/17 14:13:45;;;;;;;;;;;333.00;2329.60;;;;;;5040564;28;20374;-82